Time;durP1;ratioP1;P1;durP2;ratioP2;P2;SDS_P1;SDS_P2;PMS_P1;PMS_P2;Temp;Humidity;BMP_temperature;BMP_pressure;BME280_temperature;BME280_humidity;BME280_pressure;Samples;Min_cycle;Max_cycle;Signal;HPM_P1;HPM_P2
2023/04/21 00:00:52;;;;;;;;;;;11.10;71.10;;;;;;5099063;27;92190;-42
2023/04/21 00:03:19;;;;;;;;;;;11.10;71.10;;;;;;5098131;27;93961;-42
2023/04/21 00:05:45;;;;;;;;;;;11.10;71.10;;;;;;5098433;27;94396;-42
2023/04/21 00:08:11;;;;;;;;;;;11.10;71.10;;;;;;5099031;27;92198;-42
2023/04/21 00:10:36;;;;;;;;;;;11.10;71.10;;;;;;5098852;27;92763;-42
2023/04/21 00:13:02;;;;;;;;;;;11.10;71.10;;;;;;5101675;27;93178;-42
2023/04/21 00:15:27;;;;;;;;;;;11.10;71.10;;;;;;5098367;27;93487;-42
2023/04/21 00:17:53;;;;;;;;;;;11.10;71.60;;;;;;5098127;27;93799;-42
2023/04/21 00:20:19;;;;;;;;;;;11.00;70.90;;;;;;5099430;27;91701;-42
2023/04/21 00:22:44;;;;;;;;;;;11.00;71.00;;;;;;5098547;27;93118;-42
2023/04/21 00:25:10;;;;;;;;;;;11.10;70.90;;;;;;5098005;27;94331;-42
2023/04/21 00:27:35;;;;;;;;;;;11.00;70.90;;;;;;5098636;27;93143;-42
2023/04/21 00:30:01;;;;;;;;;;;11.10;71.00;;;;;;5098895;27;95168;-42
2023/04/21 00:32:26;;;;;;;;;;;11.00;70.90;;;;;;5098433;27;94562;-42
2023/04/21 00:34:52;;;;;;;;;;;11.00;70.90;;;;;;5101209;27;92282;-42
2023/04/21 00:37:17;;;;;;;;;;;11.00;70.90;;;;;;5098003;27;94448;-42
2023/04/21 00:39:43;;;;;;;;;;;11.00;70.80;;;;;;5098697;27;92191;-42
2023/04/21 00:42:08;;;;;;;;;;;11.00;70.80;;;;;;5098783;27;93624;-42
2023/04/21 00:44:34;;;;;;;;;;;11.00;70.80;;;;;;5100569;27;92340;-42
2023/04/21 00:46:59;;;;;;;;;;;10.90;70.80;;;;;;5102269;27;92550;-42
2023/04/21 00:49:25;;;;;;;;;;;11.00;70.90;;;;;;5102282;27;93744;-42
2023/04/21 00:51:51;;;;;;;;;;;11.00;70.80;;;;;;5096881;27;95486;-42
2023/04/21 00:54:17;;;;;;;;;;;10.90;70.70;;;;;;5102069;27;92242;-42
2023/04/21 00:56:42;;;;;;;;;;;10.90;70.70;;;;;;5104683;27;93829;-42
2023/04/21 00:59:08;;;;;;;;;;;10.90;70.70;;;;;;5102303;27;92450;-42
2023/04/21 01:01:35;;;;;;;;;;;10.90;70.70;;;;;;5101715;27;92999;-42
2023/04/21 01:04:01;;;;;;;;;;;10.90;70.80;;;;;;5101372;27;94604;-42
2023/04/21 01:06:33;;;;;;;;;;;10.90;70.80;;;;;;5101914;27;92271;-42
2023/04/21 01:08:59;;;;;;;;;;;10.90;70.70;;;;;;5099203;27;91395;-42
2023/04/21 01:11:25;;;;;;;;;;;10.90;70.70;;;;;;5101368;27;94605;-42
2023/04/21 01:13:53;;;;;;;;;;;10.90;70.70;;;;;;5101572;27;92279;-42
2023/04/21 01:16:20;;;;;;;;;;;10.90;70.70;;;;;;5103899;27;93742;-42
2023/04/21 01:18:45;;;;;;;;;;;10.90;70.70;;;;;;5101962;27;92191;-42
2023/04/21 01:21:12;;;;;;;;;;;10.80;70.70;;;;;;5101741;27;93780;-42
2023/04/21 01:23:38;;;;;;;;;;;10.90;70.70;;;;;;5101366;27;94528;-42
2023/04/21 01:26:05;;;;;;;;;;;10.90;70.70;;;;;;5101188;27;92208;-42
2023/04/21 01:28:30;;;;;;;;;;;10.80;70.70;;;;;;5101743;27;93876;-42
2023/04/21 01:30:56;;;;;;;;;;;10.80;70.60;;;;;;5100895;27;94875;-42
2023/04/21 01:33:21;;;;;;;;;;;10.80;70.60;;;;;;5102134;27;91844;-42
2023/04/21 01:35:47;;;;;;;;;;;10.80;70.70;;;;;;5100686;27;92967;-42
2023/04/21 01:38:17;;;;;;;;;;;10.80;70.70;;;;;;5103862;27;94612;-42
2023/04/21 01:40:45;;;;;;;;;;;10.80;70.70;;;;;;5100868;27;93022;-42
2023/04/21 01:43:11;;;;;;;;;;;10.70;70.60;;;;;;5100890;27;94461;-42
2023/04/21 01:45:36;;;;;;;;;;;10.70;70.70;;;;;;5097346;27;92455;-42
2023/04/21 01:48:02;;;;;;;;;;;10.70;70.60;;;;;;5101313;27;93907;-42
2023/04/21 01:50:27;;;;;;;;;;;10.70;70.60;;;;;;5100358;27;94285;-42
2023/04/21 01:52:53;;;;;;;;;;;10.70;70.60;;;;;;5101487;27;92148;-42
2023/04/21 01:55:19;;;;;;;;;;;10.70;70.60;;;;;;5100153;27;93886;-42
2023/04/21 01:57:44;;;;;;;;;;;10.70;70.60;;;;;;5100286;27;93915;-42
2023/04/21 02:00:10;;;;;;;;;;;10.70;70.60;;;;;;5104155;27;92200;-42
2023/04/21 02:02:36;;;;;;;;;;;10.70;70.60;;;;;;5100906;27;92957;-42
2023/04/21 02:05:01;;;;;;;;;;;10.70;70.60;;;;;;5100378;27;93413;-42
2023/04/21 02:07:27;;;;;;;;;;;10.70;70.60;;;;;;5101530;27;93637;-42
2023/04/21 02:09:52;;;;;;;;;;;10.60;70.50;;;;;;5100542;27;93474;-42
2023/04/21 02:12:18;;;;;;;;;;;10.60;70.50;;;;;;5100791;27;92138;-42
2023/04/21 02:14:45;;;;;;;;;;;10.60;70.60;;;;;;5099258;27;94015;-42
2023/04/21 02:17:10;;;;;;;;;;;10.60;70.50;;;;;;5100375;27;94514;-42
2023/04/21 02:19:36;;;;;;;;;;;10.60;70.50;;;;;;5101158;27;92139;-42
2023/04/21 02:22:02;;;;;;;;;;;10.60;70.50;;;;;;5099617;27;93970;-42
2023/04/21 02:24:28;;;;;;;;;;;10.60;70.50;;;;;;5100548;27;92162;-42
2023/04/21 02:26:53;;;;;;;;;;;10.60;70.60;;;;;;5100555;27;93974;-42
2023/04/21 02:29:19;;;;;;;;;;;10.60;70.50;;;;;;5099424;27;95555;-42
2023/04/21 02:31:44;;;;;;;;;;;10.60;71.10;;;;;;5099580;27;92840;-42
2023/04/21 02:34:10;;;;;;;;;;;10.50;70.50;;;;;;5097071;27;93995;-42
2023/04/21 02:36:36;;;;;;;;;;;10.50;70.50;;;;;;5099625;27;94409;-42
2023/04/21 02:39:03;;;;;;;;;;;10.50;70.50;;;;;;5100881;27;92498;-42
2023/04/21 02:41:28;;;;;;;;;;;10.50;70.40;;;;;;5100408;27;94008;-42
2023/04/21 02:43:54;;;;;;;;;;;10.50;70.50;;;;;;5101715;27;95989;-42
2023/04/21 02:46:20;;;;;;;;;;;10.50;70.40;;;;;;5097010;27;93833;-42
2023/04/21 02:48:45;;;;;;;;;;;10.50;70.50;;;;;;5099874;27;92305;-42
2023/04/21 02:51:14;;;;;;;;;;;10.50;70.50;;;;;;5100197;27;92187;-42
2023/04/21 02:53:40;;;;;;;;;;;10.50;70.50;;;;;;5099766;27;94313;-42
2023/04/21 02:56:08;;;;;;;;;;;10.50;70.50;;;;;;5099694;27;94420;-42
2023/04/21 02:58:35;;;;;;;;;;;10.40;70.50;;;;;;5096204;27;92239;-42
2023/04/21 03:01:01;;;;;;;;;;;10.40;70.40;;;;;;5100015;27;93663;-42
2023/04/21 03:03:26;;;;;;;;;;;10.40;70.40;;;;;;5099195;27;94518;-42
2023/04/21 03:05:56;;;;;;;;;;;10.40;70.30;;;;;;5103042;27;92133;-42
2023/04/21 03:08:21;;;;;;;;;;;10.40;70.30;;;;;;5098979;27;93578;-42
2023/04/21 03:10:47;;;;;;;;;;;10.40;70.40;;;;;;5100484;27;91684;-42
2023/04/21 03:13:12;;;;;;;;;;;10.40;70.40;;;;;;5099910;27;93110;-42
2023/04/21 03:15:38;;;;;;;;;;;10.40;70.30;;;;;;5098789;27;94714;-42
2023/04/21 03:18:03;;;;;;;;;;;10.40;70.30;;;;;;5099047;27;93046;-42
2023/04/21 03:20:29;;;;;;;;;;;10.30;70.30;;;;;;5099690;27;92855;-42
2023/04/21 03:22:54;;;;;;;;;;;10.30;70.30;;;;;;5099398;27;94581;-42
2023/04/21 03:25:20;;;;;;;;;;;10.30;70.30;;;;;;5102417;27;92250;-42
2023/04/21 03:27:45;;;;;;;;;;;10.30;70.30;;;;;;5099269;27;92979;-42
2023/04/21 03:30:11;;;;;;;;;;;10.30;70.30;;;;;;5099561;27;92142;-42
2023/04/21 03:32:37;;;;;;;;;;;10.30;70.30;;;;;;5099627;27;93770;-42
2023/04/21 03:35:02;;;;;;;;;;;10.30;70.30;;;;;;5098876;27;93603;-42
2023/04/21 03:37:28;;;;;;;;;;;10.30;70.20;;;;;;5099337;27;92183;-42
2023/04/21 03:39:53;;;;;;;;;;;10.30;70.10;;;;;;5099525;27;92423;-42
2023/04/21 03:42:19;;;;;;;;;;;10.30;70.30;;;;;;5098269;27;95434;-42
2023/04/21 03:44:44;;;;;;;;;;;10.30;70.20;;;;;;5099265;27;92051;-42
2023/04/21 03:47:10;;;;;;;;;;;10.30;70.30;;;;;;5102296;27;92334;-42
2023/04/21 03:49:35;;;;;;;;;;;10.20;70.20;;;;;;5099084;27;92333;-42
2023/04/21 03:52:01;;;;;;;;;;;10.30;70.30;;;;;;5099704;27;93685;-42
2023/04/21 03:54:26;;;;;;;;;;;10.30;70.10;;;;;;5098311;27;94490;-42
2023/04/21 03:56:52;;;;;;;;;;;10.20;70.10;;;;;;5099422;27;92122;-42
2023/04/21 03:59:17;;;;;;;;;;;10.20;70.10;;;;;;5099787;27;93821;-42
2023/04/21 04:01:43;;;;;;;;;;;10.20;70.10;;;;;;5098473;27;94802;-42
2023/04/21 04:04:08;;;;;;;;;;;10.20;70.10;;;;;;5099451;27;92134;-42
2023/04/21 04:06:34;;;;;;;;;;;10.20;70.10;;;;;;5098512;27;93636;-42
2023/04/21 04:09:03;;;;;;;;;;;10.20;70.00;;;;;;5101640;27;94165;-42
2023/04/21 04:11:29;;;;;;;;;;;10.20;70.00;;;;;;5098859;27;92671;-42
2023/04/21 04:13:54;;;;;;;;;;;10.20;70.10;;;;;;5098161;27;93003;-42
2023/04/21 04:16:20;;;;;;;;;;;10.10;70.00;;;;;;5099092;27;92230;-42
2023/04/21 04:18:45;;;;;;;;;;;10.10;70.00;;;;;;5097029;27;93683;-42
2023/04/21 04:21:11;;;;;;;;;;;10.10;70.00;;;;;;5100240;27;94442;-42
2023/04/21 04:23:36;;;;;;;;;;;10.10;70.00;;;;;;5098772;27;92001;-42
2023/04/21 04:26:04;;;;;;;;;;;10.10;70.00;;;;;;5102450;27;92086;-42
2023/04/21 04:28:30;;;;;;;;;;;10.10;70.00;;;;;;5097937;27;94438;-42
2023/04/21 04:30:55;;;;;;;;;;;10.10;70.00;;;;;;5100954;27;93075;-42
2023/04/21 04:33:21;;;;;;;;;;;10.10;70.20;;;;;;5102065;27;94468;-42
2023/04/21 04:35:46;;;;;;;;;;;10.10;70.00;;;;;;5101578;27;92167;-42
2023/04/21 04:38:13;;;;;;;;;;;10.10;70.00;;;;;;5102626;27;94195;-42
2023/04/21 04:40:39;;;;;;;;;;;10.10;70.00;;;;;;5101721;27;93822;-42
2023/04/21 04:43:04;;;;;;;;;;;10.10;69.90;;;;;;5102259;27;92252;-42
2023/04/21 04:45:31;;;;;;;;;;;10.10;69.90;;;;;;5102127;27;92723;-42
2023/04/21 04:47:57;;;;;;;;;;;10.00;69.90;;;;;;5102395;27;93480;-42
2023/04/21 04:50:23;;;;;;;;;;;10.00;69.90;;;;;;5102243;27;92595;-42
2023/04/21 04:52:49;;;;;;;;;;;10.00;70.00;;;;;;5104662;27;91971;-42
2023/04/21 04:55:14;;;;;;;;;;;10.00;70.00;;;;;;5101406;27;93355;-42
2023/04/21 04:57:40;;;;;;;;;;;10.00;70.00;;;;;;5101829;27;94976;-42
2023/04/21 05:00:10;;;;;;;;;;;10.00;70.00;;;;;;5101459;27;94971;-42
2023/04/21 05:02:36;;;;;;;;;;;10.00;70.00;;;;;;5102546;27;92222;-42
2023/04/21 05:05:02;;;;;;;;;;;10.00;70.10;;;;;;5102326;27;92522;-42
2023/04/21 05:07:27;;;;;;;;;;;10.00;70.10;;;;;;5101706;27;94619;-42
2023/04/21 05:09:53;;;;;;;;;;;10.00;70.00;;;;;;5094110;27;92200;-42
2023/04/21 05:12:19;;;;;;;;;;;10.00;70.00;;;;;;5104949;27;92945;-42
2023/04/21 05:14:44;;;;;;;;;;;10.00;70.00;;;;;;5101718;27;92180;-42
2023/04/21 05:17:10;;;;;;;;;;;10.00;70.00;;;;;;5101760;27;94076;-42
2023/04/21 05:19:36;;;;;;;;;;;10.00;70.00;;;;;;5100630;27;95400;-42
2023/04/21 05:22:01;;;;;;;;;;;9.90;70.00;;;;;;5101809;27;92232;-42
2023/04/21 05:24:27;;;;;;;;;;;9.90;70.00;;;;;;5101340;27;94384;-42
2023/04/21 05:26:53;;;;;;;;;;;10.00;70.00;;;;;;5097160;27;94395;-42
2023/04/21 05:29:18;;;;;;;;;;;10.00;70.00;;;;;;5101675;27;92192;-42
2023/04/21 05:31:44;;;;;;;;;;;9.90;70.00;;;;;;5101535;27;92366;-42
2023/04/21 05:34:09;;;;;;;;;;;9.90;70.00;;;;;;5103850;27;94778;-42
2023/04/21 05:36:35;;;;;;;;;;;9.90;70.10;;;;;;5101684;27;94377;-42
2023/04/21 05:39:00;;;;;;;;;;;9.90;70.10;;;;;;5100842;27;94586;-42
2023/04/21 05:41:26;;;;;;;;;;;9.90;70.10;;;;;;5101844;27;92467;-42
2023/04/21 05:43:51;;;;;;;;;;;9.90;70.20;;;;;;5100880;27;93546;-42
2023/04/21 05:46:17;;;;;;;;;;;9.90;70.10;;;;;;5100090;27;94612;-42
2023/04/21 05:48:42;;;;;;;;;;;9.90;70.20;;;;;;5101037;27;92313;-42
2023/04/21 05:51:09;;;;;;;;;;;9.90;70.10;;;;;;5101654;27;92504;-42
2023/04/21 05:53:35;;;;;;;;;;;9.90;70.20;;;;;;5100639;27;94765;-42
2023/04/21 05:56:01;;;;;;;;;;;9.90;70.20;;;;;;5100353;27;92146;-42
2023/04/21 05:58:26;;;;;;;;;;;9.90;70.20;;;;;;5100715;27;94663;-42
2023/04/21 06:00:52;;;;;;;;;;;9.90;70.30;;;;;;5101615;27;91313;-42
2023/04/21 06:03:17;;;;;;;;;;;9.90;70.20;;;;;;5101109;27;93048;-42
2023/04/21 06:05:43;;;;;;;;;;;9.90;70.20;;;;;;5100019;27;94572;-42
2023/04/21 06:08:08;;;;;;;;;;;9.80;70.20;;;;;;5096255;27;93629;-42
2023/04/21 06:10:34;;;;;;;;;;;9.90;70.30;;;;;;5100488;27;95122;-42
2023/04/21 06:12:59;;;;;;;;;;;9.80;70.20;;;;;;5100325;27;94358;-42
2023/04/21 06:15:25;;;;;;;;;;;9.90;70.20;;;;;;5096648;27;92815;-42
2023/04/21 06:17:54;;;;;;;;;;;9.90;70.20;;;;;;5103204;27;93052;-42
2023/04/21 06:20:19;;;;;;;;;;;9.80;70.10;;;;;;5100615;27;92079;-42
2023/04/21 06:22:45;;;;;;;;;;;9.80;70.20;;;;;;5101186;27;92552;-42
2023/04/21 06:25:10;;;;;;;;;;;9.80;70.30;;;;;;5101105;27;92346;-42
2023/04/21 06:27:36;;;;;;;;;;;9.80;70.20;;;;;;5100760;27;92163;-42
2023/04/21 06:30:01;;;;;;;;;;;9.80;70.20;;;;;;5100940;27;92452;-42
2023/04/21 06:32:27;;;;;;;;;;;9.90;70.20;;;;;;5095865;27;93957;-42
2023/04/21 06:34:52;;;;;;;;;;;9.90;70.20;;;;;;5100284;27;92221;-42
2023/04/21 06:37:18;;;;;;;;;;;9.80;70.20;;;;;;5100295;27;93690;-42
2023/04/21 06:39:43;;;;;;;;;;;9.80;70.20;;;;;;5103137;27;93944;-42
2023/04/21 06:42:09;;;;;;;;;;;9.80;70.30;;;;;;5095625;27;93449;-42
2023/04/21 06:44:36;;;;;;;;;;;9.80;70.40;;;;;;5099788;27;94317;-42
2023/04/21 06:47:02;;;;;;;;;;;9.80;70.40;;;;;;5100181;27;92198;-42
2023/04/21 06:49:27;;;;;;;;;;;9.80;70.40;;;;;;5100665;27;93803;-42
2023/04/21 06:51:53;;;;;;;;;;;9.80;70.40;;;;;;5099636;27;94562;-42
2023/04/21 06:54:18;;;;;;;;;;;9.80;70.40;;;;;;5100302;27;92191;-42
2023/04/21 06:56:44;;;;;;;;;;;9.80;70.40;;;;;;5096191;27;93515;-42
2023/04/21 06:59:09;;;;;;;;;;;9.80;70.50;;;;;;5099279;27;94597;-42
2023/04/21 07:01:35;;;;;;;;;;;9.80;70.50;;;;;;5103094;27;92412;-42
2023/04/21 07:04:00;;;;;;;;;;;9.80;70.60;;;;;;5099294;27;94564;-43
2023/04/21 07:06:26;;;;;;;;;;;9.80;70.50;;;;;;5099663;27;92128;-42
2023/04/21 07:08:51;;;;;;;;;;;9.80;70.40;;;;;;5100043;27;94031;-42
2023/04/21 07:11:17;;;;;;;;;;;9.80;70.40;;;;;;5099441;27;94449;-42
2023/04/21 07:13:42;;;;;;;;;;;9.80;70.50;;;;;;5100304;27;91502;-42
2023/04/21 07:16:08;;;;;;;;;;;9.80;70.50;;;;;;5099786;27;92063;-42
2023/04/21 07:18:34;;;;;;;;;;;9.80;70.60;;;;;;5099475;27;93135;-42
2023/04/21 07:20:59;;;;;;;;;;;9.80;70.60;;;;;;5102435;27;93118;-42
2023/04/21 07:23:25;;;;;;;;;;;9.80;70.50;;;;;;5099383;27;94407;-42
2023/04/21 07:25:50;;;;;;;;;;;9.80;70.50;;;;;;5099720;27;92434;-42
2023/04/21 07:28:16;;;;;;;;;;;9.70;70.50;;;;;;5100174;27;92804;-42
2023/04/21 07:30:41;;;;;;;;;;;9.70;70.50;;;;;;5099412;27;94589;-42
2023/04/21 07:33:07;;;;;;;;;;;9.80;70.60;;;;;;5099898;27;92138;-42
2023/04/21 07:35:33;;;;;;;;;;;9.70;70.60;;;;;;5099492;27;93858;-42
2023/04/21 07:37:58;;;;;;;;;;;9.70;70.60;;;;;;5099862;27;92967;-42
2023/04/21 07:40:24;;;;;;;;;;;9.80;70.60;;;;;;5099724;27;92193;-42
2023/04/21 07:42:49;;;;;;;;;;;9.80;70.50;;;;;;5102784;27;92399;-42
2023/04/21 07:45:15;;;;;;;;;;;9.80;70.60;;;;;;5099418;27;93423;-42
2023/04/21 07:47:41;;;;;;;;;;;9.80;70.60;;;;;;5095869;27;93343;-42
2023/04/21 07:50:06;;;;;;;;;;;9.80;70.60;;;;;;5098933;27;94759;-42
2023/04/21 07:52:32;;;;;;;;;;;9.70;70.70;;;;;;5099370;27;92671;-42
2023/04/21 07:54:57;;;;;;;;;;;9.80;70.60;;;;;;5099639;27;92453;-42
2023/04/21 07:57:23;;;;;;;;;;;9.80;70.60;;;;;;5099092;27;93274;-42
2023/04/21 07:59:49;;;;;;;;;;;9.80;70.60;;;;;;5095705;27;92370;-42
2023/04/21 08:02:14;;;;;;;;;;;9.80;70.60;;;;;;5099667;27;93689;-42
2023/04/21 08:04:40;;;;;;;;;;;9.80;71.30;;;;;;5101398;27;94173;-42
2023/04/21 08:07:05;;;;;;;;;;;9.90;70.50;;;;;;5099288;27;94116;-42
2023/04/21 08:09:31;;;;;;;;;;;9.80;70.60;;;;;;5098039;27;95268;-42
2023/04/21 08:11:57;;;;;;;;;;;9.80;70.70;;;;;;5099389;27;92300;-42
2023/04/21 08:14:22;;;;;;;;;;;9.90;70.50;;;;;;5099075;27;93934;-42
2023/04/21 08:16:48;;;;;;;;;;;9.80;70.60;;;;;;5098816;27;93743;-42
2023/04/21 08:19:14;;;;;;;;;;;9.80;70.70;;;;;;5098995;27;92285;-42
2023/04/21 08:21:39;;;;;;;;;;;9.80;70.80;;;;;;5098829;27;93898;-42
2023/04/21 08:24:05;;;;;;;;;;;9.90;70.70;;;;;;5098684;27;94598;-42
2023/04/21 08:26:32;;;;;;;;;;;9.90;71.00;;;;;;5102732;27;91459;-42
2023/04/21 08:28:58;;;;;;;;;;;9.90;70.80;;;;;;5098598;27;94215;-42
2023/04/21 08:31:24;;;;;;;;;;;9.90;71.30;;;;;;5099004;27;92631;-43
2023/04/21 08:33:50;;;;;;;;;;;9.90;71.10;;;;;;5098399;27;93243;-42
2023/04/21 08:36:15;;;;;;;;;;;9.80;71.20;;;;;;5098147;27;93019;-42
2023/04/21 08:38:41;;;;;;;;;;;9.90;71.30;;;;;;5098948;27;92061;-42
2023/04/21 08:41:07;;;;;;;;;;;9.80;71.40;;;;;;5099225;27;92109;-42
2023/04/21 08:43:32;;;;;;;;;;;9.80;71.30;;;;;;5098366;27;94430;-42
2023/04/21 08:45:58;;;;;;;;;;;9.90;71.50;;;;;;5098694;27;92157;-42
2023/04/21 08:48:25;;;;;;;;;;;9.90;71.60;;;;;;5101664;27;93074;-42
2023/04/21 08:50:51;;;;;;;;;;;9.90;71.70;;;;;;5095375;27;91931;-42
2023/04/21 08:53:16;;;;;;;;;;;9.90;71.50;;;;;;5098815;27;92650;-42
2023/04/21 08:55:42;;;;;;;;;;;9.90;71.80;;;;;;5098135;27;94867;-42
2023/04/21 08:58:08;;;;;;;;;;;9.90;71.60;;;;;;5097995;27;93175;-42
2023/04/21 09:00:34;;;;;;;;;;;10.00;71.70;;;;;;5097169;27;94728;-42
2023/04/21 09:03:00;;;;;;;;;;;10.00;71.70;;;;;;5098256;27;92981;-42
2023/04/21 09:05:26;;;;;;;;;;;10.00;71.60;;;;;;5099502;27;92518;-42
2023/04/21 09:08:11;;;;;;;;;;;10.00;71.50;;;;;;5102434;27;92425;-42
2023/04/21 09:10:47;;;;;;;;;;;10.00;71.50;;;;;;5098348;27;94447;-42
2023/04/21 09:13:13;;;;;;;;;;;10.00;71.70;;;;;;5102093;27;93760;-42
2023/04/21 09:15:43;;;;;;;;;;;10.00;71.60;;;;;;5101046;27;93537;-42
2023/04/21 09:18:18;;;;;;;;;;;10.00;72.20;;;;;;5097592;27;92586;-42
2023/04/21 09:20:45;;;;;;;;;;;10.00;71.80;;;;;;5101402;27;93657;-42
2023/04/21 09:23:10;;;;;;;;;;;10.00;71.80;;;;;;5100588;27;95142;-42
2023/04/21 09:25:40;;;;;;;;;;;10.00;71.90;;;;;;5101783;27;92166;-42
2023/04/21 09:28:06;;;;;;;;;;;10.00;72.00;;;;;;5101968;27;93832;-42
2023/04/21 09:30:33;;;;;;;;;;;10.00;71.90;;;;;;5104162;27;93648;-42
2023/04/21 09:32:59;;;;;;;;;;;10.00;71.90;;;;;;5101727;27;92464;-42
2023/04/21 09:35:28;;;;;;;;;;;10.00;71.90;;;;;;5101299;27;93014;-42
2023/04/21 09:37:54;;;;;;;;;;;10.10;71.90;;;;;;5101701;27;92312;-42
2023/04/21 09:40:19;;;;;;;;;;;10.10;71.90;;;;;;5101905;27;93669;-42
2023/04/21 09:42:45;;;;;;;;;;;10.10;71.60;;;;;;5101070;27;94356;-42
2023/04/21 09:45:11;;;;;;;;;;;10.10;71.70;;;;;;5101224;27;92550;-42
2023/04/21 09:47:38;;;;;;;;;;;10.10;72.20;;;;;;5096673;27;93808;-42
2023/04/21 09:50:05;;;;;;;;;;;10.10;71.70;;;;;;5100775;27;94534;-42
2023/04/21 09:52:32;;;;;;;;;;;10.20;71.90;;;;;;5104676;27;92227;-42
2023/04/21 09:55:00;;;;;;;;;;;10.20;72.20;;;;;;5100793;27;94570;-42
2023/04/21 09:57:28;;;;;;;;;;;10.20;72.10;;;;;;5101514;27;92182;-42
2023/04/21 09:59:58;;;;;;;;;;;10.20;72.10;;;;;;5100038;27;95524;-42
2023/04/21 10:02:25;;;;;;;;;;;10.10;72.00;;;;;;5100757;27;93288;-42
2023/04/21 10:04:51;;;;;;;;;;;10.20;72.30;;;;;;5101173;27;91468;-42
2023/04/21 10:07:17;;;;;;;;;;;10.20;72.10;;;;;;5101132;27;93219;-42
2023/04/21 10:09:44;;;;;;;;;;;10.20;72.00;;;;;;5100666;27;93073;-42
2023/04/21 10:12:10;;;;;;;;;;;10.20;72.10;;;;;;5100219;27;93151;-42
2023/04/21 10:14:36;;;;;;;;;;;10.30;72.10;;;;;;5102908;27;94576;-43
2023/04/21 10:17:06;;;;;;;;;;;10.20;72.30;;;;;;5099801;27;92143;-42
2023/04/21 10:19:38;;;;;;;;;;;10.20;72.10;;;;;;5100890;27;93949;-42
2023/04/21 10:22:05;;;;;;;;;;;10.20;72.50;;;;;;5097013;27;94354;-42
2023/04/21 10:24:35;;;;;;;;;;;10.20;72.30;;;;;;5100814;27;92152;-42
2023/04/21 10:27:01;;;;;;;;;;;10.30;72.20;;;;;;5100734;27;93257;-42
2023/04/21 10:29:33;;;;;;;;;;;10.30;72.30;;;;;;5100860;27;93559;-42
2023/04/21 10:31:59;;;;;;;;;;;10.20;72.50;;;;;;5100678;27;92250;-42
2023/04/21 10:34:24;;;;;;;;;;;10.30;72.70;;;;;;5101185;27;93572;-42
2023/04/21 10:36:52;;;;;;;;;;;10.30;72.50;;;;;;5098472;27;95744;-42
2023/04/21 10:39:25;;;;;;;;;;;10.30;72.40;;;;;;5100844;27;93376;-42
2023/04/21 10:41:50;;;;;;;;;;;10.40;72.20;;;;;;5096661;27;94413;-42
2023/04/21 10:44:16;;;;;;;;;;;10.40;72.30;;;;;;5100650;27;92171;-42
2023/04/21 10:46:45;;;;;;;;;;;10.40;72.50;;;;;;5100559;27;93850;-42
2023/04/21 10:49:19;;;;;;;;;;;10.40;72.40;;;;;;5099786;27;94431;-42
2023/04/21 10:52:05;;;;;;;;;;;10.20;73.00;;;;;;5097436;27;92029;-42
2023/04/21 10:55:03;;;;;;;;;;;10.20;73.00;;;;;;5093393;27;93923;-42
2023/04/21 10:57:32;;;;;;;;;;;10.30;72.90;;;;;;5097442;27;94508;-42
2023/04/21 10:59:58;;;;;;;;;;;10.30;72.60;;;;;;5103578;27;92131;-42
2023/04/21 11:02:24;;;;;;;;;;;10.30;72.90;;;;;;5099056;27;93919;-42
2023/04/21 11:04:50;;;;;;;;;;;10.40;72.90;;;;;;5099874;27;92095;-42
2023/04/21 11:07:20;;;;;;;;;;;10.40;72.90;;;;;;5099749;27;94026;-42
2023/04/21 11:09:46;;;;;;;;;;;10.40;72.80;;;;;;5099713;27;94397;-42
2023/04/21 11:12:19;;;;;;;;;;;10.50;72.90;;;;;;5100309;27;92132;-42
2023/04/21 11:14:46;;;;;;;;;;;10.50;72.60;;;;;;5095944;27;93991;-42
2023/04/21 11:17:14;;;;;;;;;;;10.50;72.50;;;;;;5099153;27;94265;-42
2023/04/21 11:19:39;;;;;;;;;;;10.40;72.80;;;;;;5100285;27;91383;-42
2023/04/21 11:22:05;;;;;;;;;;;10.50;72.90;;;;;;5102297;27;93449;-42
2023/04/21 11:24:31;;;;;;;;;;;10.50;72.70;;;;;;5099908;27;92628;-43
2023/04/21 11:26:57;;;;;;;;;;;10.40;72.90;;;;;;5099080;27;93740;-42
2023/04/21 11:29:22;;;;;;;;;;;10.40;73.20;;;;;;5098894;27;94346;-42
2023/04/21 11:31:49;;;;;;;;;;;10.30;73.50;;;;;;5099738;27;92220;-42
2023/04/21 11:34:15;;;;;;;;;;;10.30;73.70;;;;;;5099909;27;94009;-43
2023/04/21 11:36:46;;;;;;;;;;;10.40;73.60;;;;;;5098597;27;94531;-42
2023/04/21 11:39:14;;;;;;;;;;;10.40;73.60;;;;;;5095979;27;92119;-42
2023/04/21 11:41:44;;;;;;;;;;;10.40;73.70;;;;;;5102546;27;94145;-42
2023/04/21 11:44:10;;;;;;;;;;;10.30;73.90;;;;;;5099911;27;91476;-42
2023/04/21 11:46:36;;;;;;;;;;;10.30;74.00;;;;;;5099401;27;93213;-42
2023/04/21 11:49:03;;;;;;;;;;;10.40;73.30;;;;;;5099377;27;94438;-42
2023/04/21 11:51:35;;;;;;;;;;;10.50;73.20;;;;;;5099006;27;93672;-42
2023/04/21 11:54:01;;;;;;;;;;;10.40;73.50;;;;;;5099484;27;94852;-42
2023/04/21 11:56:27;;;;;;;;;;;10.40;73.90;;;;;;5099080;27;92258;-42
2023/04/21 11:58:52;;;;;;;;;;;10.40;74.00;;;;;;5099020;27;92256;-42
2023/04/21 12:01:19;;;;;;;;;;;10.40;74.20;;;;;;5099171;27;93865;-42
2023/04/21 12:03:54;;;;;;;;;;;10.40;74.30;;;;;;5101747;27;94274;-42
2023/04/21 12:06:23;;;;;;;;;;;10.30;74.50;;;;;;5099068;27;93823;-42
2023/04/21 12:08:58;;;;;;;;;;;10.40;74.50;;;;;;5095101;27;93418;-43
2023/04/21 12:11:25;;;;;;;;;;;10.40;74.30;;;;;;5098945;27;92614;-42
2023/04/21 12:13:51;;;;;;;;;;;10.50;74.10;;;;;;5098699;27;93704;-42
2023/04/21 12:16:17;;;;;;;;;;;10.50;74.10;;;;;;5097912;27;94700;-42
2023/04/21 12:18:43;;;;;;;;;;;10.50;74.00;;;;;;5095339;27;92131;-42
2023/04/21 12:21:08;;;;;;;;;;;10.50;74.10;;;;;;5099141;27;93800;-42
2023/04/21 12:23:34;;;;;;;;;;;10.50;74.00;;;;;;5098489;27;94341;-42
2023/04/21 12:26:00;;;;;;;;;;;10.50;73.80;;;;;;5101561;27;93916;-42
2023/04/21 12:28:25;;;;;;;;;;;10.60;73.70;;;;;;5098487;27;94711;-42
2023/04/21 12:30:51;;;;;;;;;;;10.60;73.80;;;;;;5099006;27;92151;-42
2023/04/21 12:33:16;;;;;;;;;;;10.60;74.40;;;;;;5099526;27;93881;-42
2023/04/21 12:35:42;;;;;;;;;;;10.60;73.70;;;;;;5098626;27;94545;-42
2023/04/21 12:38:08;;;;;;;;;;;10.70;73.60;;;;;;5098588;27;92204;-42
2023/04/21 12:40:34;;;;;;;;;;;10.60;73.70;;;;;;5100163;27;92925;-42
2023/04/21 12:42:59;;;;;;;;;;;10.60;73.80;;;;;;5101807;27;94518;-42
2023/04/21 12:45:25;;;;;;;;;;;10.60;73.70;;;;;;5102344;27;92449;-42
2023/04/21 12:47:50;;;;;;;;;;;10.60;73.70;;;;;;5105285;27;93781;-42
2023/04/21 12:50:16;;;;;;;;;;;10.60;73.80;;;;;;5102295;27;92008;-42
2023/04/21 12:52:41;;;;;;;;;;;10.70;73.80;;;;;;5102100;27;92536;-42
2023/04/21 12:55:07;;;;;;;;;;;10.70;73.70;;;;;;5101728;27;94363;-42
2023/04/21 12:57:32;;;;;;;;;;;10.70;73.80;;;;;;5102825;27;91457;-42
2023/04/21 12:59:59;;;;;;;;;;;10.70;73.80;;;;;;5102689;27;92135;-42
2023/04/21 13:02:24;;;;;;;;;;;10.70;73.80;;;;;;5101628;27;94931;-42
2023/04/21 13:04:50;;;;;;;;;;;10.70;73.80;;;;;;5101358;27;93125;-42
2023/04/21 13:07:17;;;;;;;;;;;10.70;73.80;;;;;;5101724;27;94621;-42
2023/04/21 13:09:43;;;;;;;;;;;10.80;73.70;;;;;;5104321;27;94274;-42
2023/04/21 13:12:08;;;;;;;;;;;10.80;73.30;;;;;;5101896;27;93814;-42
2023/04/21 13:14:34;;;;;;;;;;;10.80;73.40;;;;;;5101032;27;94509;-42
2023/04/21 13:16:59;;;;;;;;;;;10.80;73.40;;;;;;5102002;27;93131;-42
2023/04/21 13:19:25;;;;;;;;;;;10.80;73.50;;;;;;5101486;27;93805;-42
2023/04/21 13:21:51;;;;;;;;;;;10.80;73.40;;;;;;5101811;27;92448;-42
2023/04/21 13:24:16;;;;;;;;;;;10.80;73.40;;;;;;5101447;27;92121;-42
2023/04/21 13:26:42;;;;;;;;;;;10.90;73.30;;;;;;5101277;27;93926;-42
2023/04/21 13:29:07;;;;;;;;;;;10.90;73.10;;;;;;5100651;27;93987;-42
2023/04/21 13:31:33;;;;;;;;;;;10.90;73.30;;;;;;5104161;27;92119;-42
2023/04/21 13:34:00;;;;;;;;;;;10.90;73.30;;;;;;5100989;27;93269;-48
2023/04/21 13:36:25;;;;;;;;;;;10.90;73.80;;;;;;5101335;27;92127;-42
2023/04/21 13:38:52;;;;;;;;;;;11.00;73.00;;;;;;5101598;27;92745;-42
2023/04/21 13:41:18;;;;;;;;;;;11.00;73.00;;;;;;5100673;27;94611;-42
2023/04/21 13:43:44;;;;;;;;;;;11.10;72.60;;;;;;5101263;27;92146;-42
2023/04/21 13:46:10;;;;;;;;;;;11.10;73.00;;;;;;5102146;27;92378;-42
2023/04/21 13:48:36;;;;;;;;;;;11.10;72.90;;;;;;5100517;27;94420;-42
2023/04/21 13:51:01;;;;;;;;;;;11.10;73.10;;;;;;5104320;27;92007;-42
2023/04/21 13:53:27;;;;;;;;;;;11.10;73.10;;;;;;5099927;27;95344;-42
2023/04/21 13:55:55;;;;;;;;;;;11.10;73.10;;;;;;5101569;27;92116;-42
2023/04/21 13:58:21;;;;;;;;;;;11.10;73.00;;;;;;5101451;27;92930;-42
2023/04/21 14:00:46;;;;;;;;;;;11.10;73.00;;;;;;5100525;27;94651;-40
2023/04/21 14:03:12;;;;;;;;;;;11.20;73.00;;;;;;5093897;27;92153;-40
2023/04/21 14:05:38;;;;;;;;;;;11.20;73.10;;;;;;5101560;27;93861;-41
2023/04/21 14:08:03;;;;;;;;;;;11.20;73.10;;;;;;5100696;27;94644;-40
2023/04/21 14:10:30;;;;;;;;;;;11.30;73.00;;;;;;5101905;27;91406;-40
2023/04/21 14:12:55;;;;;;;;;;;11.30;73.00;;;;;;5104107;27;92228;-40
2023/04/21 14:15:21;;;;;;;;;;;11.30;72.80;;;;;;5100447;27;92175;-40